createdAt,value
2018-10-09T00:00:45.763Z,38.73
2018-10-09T00:03:14.548Z,45.67
2018-10-09T00:05:43.366Z,33.07
2018-10-09T00:08:12.227Z,42.13
2018-10-09T00:10:41.040Z,40.40
2018-10-09T00:13:09.812Z,39.33
2018-10-09T00:15:38.603Z,34.07
2018-10-09T00:18:07.339Z,30.67
2018-10-09T00:20:36.733Z,36.40
2018-10-09T00:23:05.895Z,38.37
2018-10-09T00:25:34.705Z,27.47
2018-10-09T00:28:03.594Z,38.43
2018-10-09T00:30:32.321Z,32.93
2018-10-09T00:33:01.180Z,35.77
2018-10-09T00:35:30.323Z,39.47
2018-10-09T00:37:59.158Z,47.50
2018-10-09T00:40:27.951Z,45.00
2018-10-09T00:42:56.820Z,46.53
2018-10-09T00:45:25.564Z,43.57
2018-10-09T00:47:54.754Z,43.47
2018-10-09T00:50:23.566Z,49.77
2018-10-09T00:52:52.534Z,45.70
2018-10-09T00:55:21.352Z,50.03
2018-10-09T00:57:52.398Z,36.60
2018-10-09T01:00:21.306Z,36.33
2018-10-09T01:02:50.133Z,36.47
2018-10-09T01:05:18.992Z,42.50
2018-10-09T01:07:48.402Z,42.83
2018-10-09T01:10:18.498Z,38.10
2018-10-09T01:12:47.408Z,35.00
2018-10-09T01:15:17.925Z,36.40
2018-10-09T01:17:47.470Z,37.90
2018-10-09T01:20:23.046Z,44.00
2018-10-09T01:22:52.821Z,53.10
2018-10-09T01:25:21.851Z,79.87
2018-10-09T01:27:52.274Z,108.27
2018-10-09T01:30:21.096Z,124.70
2018-10-09T01:32:50.023Z,120.33
2018-10-09T01:35:18.777Z,139.83
2018-10-09T01:37:47.632Z,131.60
2018-10-09T01:40:16.458Z,140.00
2018-10-09T01:42:45.367Z,125.33
2018-10-09T01:45:14.235Z,150.73
2018-10-09T01:47:43.142Z,127.50
2018-10-09T01:50:11.864Z,140.00
2018-10-09T01:52:40.737Z,151.57
2018-10-09T01:55:09.609Z,145.90
2018-10-09T01:57:38.388Z,148.07
2018-10-09T02:00:08.938Z,67.67
2018-10-09T02:02:37.695Z,77.43
2018-10-09T02:05:06.928Z,104.73
2018-10-09T02:07:35.652Z,137.10
2018-10-09T02:10:04.918Z,194.13
2018-10-09T02:12:33.729Z,172.30
2018-10-09T02:15:02.589Z,151.47
2018-10-09T02:17:31.358Z,135.83
2018-10-09T02:20:00.147Z,97.20
2018-10-09T02:22:28.895Z,119.30
2018-10-09T02:24:57.726Z,60.77
2018-10-09T02:27:26.871Z,120.83
2018-10-09T02:32:46.329Z,63.87
2018-10-09T02:35:15.111Z,63.00
2018-10-09T02:37:43.955Z,69.77
2018-10-09T02:40:12.837Z,75.63
2018-10-09T02:42:41.647Z,55.33
2018-10-09T02:45:10.581Z,54.90
2018-10-09T02:47:39.375Z,67.33
2018-10-09T02:50:08.222Z,83.57
2018-10-09T02:52:37.081Z,51.77
2018-10-09T02:55:05.911Z,51.03
2018-10-09T02:57:34.846Z,60.10
2018-10-09T03:00:03.790Z,51.83
2018-10-09T03:02:32.675Z,62.77
2018-10-09T03:05:01.523Z,55.27
2018-10-09T03:07:30.291Z,48.93
2018-10-09T03:09:59.129Z,48.93
2018-10-09T03:12:27.968Z,54.03
2018-10-09T03:14:56.992Z,56.70
2018-10-09T03:17:25.787Z,40.87
2018-10-09T03:19:54.523Z,45.37
2018-10-09T03:22:23.949Z,52.30
2018-10-09T03:24:52.849Z,54.00
2018-10-09T03:27:21.623Z,44.80
2018-10-09T03:29:50.442Z,71.53
2018-10-09T03:32:19.393Z,67.43
2018-10-09T03:34:48.333Z,43.07
2018-10-09T03:37:17.324Z,43.33
2018-10-09T03:39:46.126Z,58.30
2018-10-09T03:42:14.935Z,46.37
2018-10-09T03:44:45.604Z,42.90
2018-10-09T03:47:17.624Z,42.77
2018-10-09T03:49:46.531Z,47.77
2018-10-09T03:52:15.350Z,39.27
2018-10-09T03:54:44.227Z,39.67
2018-10-09T03:57:13.007Z,38.57
2018-10-09T03:59:41.829Z,47.00
2018-10-09T04:02:10.849Z,66.47
2018-10-09T04:04:39.687Z,94.53
2018-10-09T04:07:08.554Z,118.77
2018-10-09T04:09:37.473Z,128.07
2018-10-09T04:12:06.383Z,151.13
2018-10-09T04:14:35.306Z,123.60
2018-10-09T04:17:04.199Z,120.10
2018-10-09T04:19:33.085Z,107.30
2018-10-09T04:22:01.897Z,116.87
2018-10-09T04:24:30.733Z,130.60
2018-10-09T04:26:59.509Z,94.37
2018-10-09T04:29:28.501Z,98.60
2018-10-09T04:31:57.281Z,122.83
2018-10-09T04:34:26.072Z,63.87
2018-10-09T04:36:54.914Z,54.97
2018-10-09T04:39:23.806Z,133.60
2018-10-09T04:41:52.582Z,94.50
2018-10-09T04:44:21.387Z,72.03
2018-10-09T04:46:57.386Z,84.20
2018-10-09T04:49:32.659Z,69.17
2018-10-09T04:52:07.090Z,102.07
2018-10-09T04:54:43.235Z,126.50
2018-10-09T04:57:17.903Z,63.53
2018-10-09T04:59:49.307Z,70.57
2018-10-09T05:02:18.118Z,93.33
2018-10-09T05:04:47.224Z,116.37
2018-10-09T05:07:16.204Z,158.93
2018-10-09T05:09:44.963Z,77.53
2018-10-09T05:12:13.818Z,86.10
2018-10-09T05:14:42.678Z,125.93
2018-10-09T05:17:11.593Z,60.73
2018-10-09T05:19:40.369Z,118.93
2018-10-09T05:22:09.321Z,60.27
2018-10-09T05:24:38.128Z,111.33
2018-10-09T05:27:07.052Z,149.00
2018-10-09T05:29:35.926Z,139.93
2018-10-09T05:32:04.967Z,121.57
2018-10-09T05:34:33.879Z,70.70
2018-10-09T05:37:02.725Z,153.93
2018-10-09T05:39:31.650Z,195.87
2018-10-09T05:42:00.570Z,175.17
2018-10-09T05:44:29.524Z,108.70
2018-10-09T05:46:58.426Z,151.17
2018-10-09T05:49:27.286Z,160.30
2018-10-09T05:51:56.165Z,128.67
2018-10-09T05:54:25.026Z,132.17
2018-10-09T05:56:53.830Z,98.90
2018-10-09T05:59:22.680Z,75.27
2018-10-09T06:01:51.454Z,141.00
2018-10-09T06:04:20.353Z,93.67
2018-10-09T06:06:49.435Z,113.67
2018-10-09T06:09:18.303Z,90.77
2018-10-09T06:11:47.490Z,58.43
2018-10-09T06:14:16.498Z,52.13
2018-10-09T06:16:45.782Z,72.40
2018-10-09T06:19:14.680Z,47.07
2018-10-09T06:21:43.553Z,64.07
2018-10-09T06:24:12.498Z,54.53
2018-10-09T06:26:41.660Z,48.97
2018-10-09T06:29:10.905Z,50.70
2018-10-09T06:31:39.941Z,56.80
2018-10-09T06:34:10.861Z,73.13
2018-10-09T06:36:39.947Z,65.60
2018-10-09T06:39:12.799Z,96.13
2018-10-09T06:41:43.028Z,68.47
2018-10-09T06:44:19.117Z,80.90
2018-10-09T06:46:52.491Z,74.83
2018-10-09T06:49:24.050Z,58.43
2018-10-09T06:51:55.498Z,66.63
2018-10-09T06:54:27.826Z,58.10
2018-10-09T06:57:03.948Z,60.40
2018-10-09T06:59:35.561Z,56.97
2018-10-09T07:02:06.676Z,57.60
2018-10-09T07:04:38.120Z,61.60
2018-10-09T07:07:07.718Z,51.40
2018-10-09T07:09:41.202Z,54.57
2018-10-09T07:12:14.962Z,45.07
2018-10-09T07:14:47.539Z,45.80
2018-10-09T07:17:18.248Z,35.97
2018-10-09T07:19:48.957Z,34.87
2018-10-09T07:22:21.249Z,36.13
2018-10-09T07:24:50.520Z,41.07
2018-10-09T07:27:21.234Z,43.97
2018-10-09T07:29:50.292Z,42.43
2018-10-09T07:32:20.408Z,39.37
2018-10-09T07:34:50.378Z,38.43
2018-10-09T07:40:09.408Z,39.23
2018-10-09T07:42:38.537Z,36.20
2018-10-09T07:45:07.661Z,42.73
2018-10-09T07:47:37.177Z,44.47
2018-10-09T07:50:07.747Z,39.20
2018-10-09T07:52:36.639Z,40.23
2018-10-09T07:55:06.094Z,35.77
2018-10-09T07:57:35.431Z,33.60
2018-10-09T08:00:04.768Z,32.30
2018-10-09T08:02:34.012Z,30.87
2018-10-09T08:05:03.749Z,32.73
2018-10-09T08:07:34.554Z,36.87
2018-10-09T08:10:04.728Z,37.23
2018-10-09T08:12:35.590Z,35.07
2018-10-09T08:15:05.111Z,33.23
2018-10-09T08:17:35.228Z,36.03
2018-10-09T08:20:05.302Z,32.40
2018-10-09T08:22:34.783Z,31.57
2018-10-09T08:25:03.896Z,34.60
2018-10-09T08:27:34.057Z,34.43
2018-10-09T08:30:03.384Z,34.30
2018-10-09T08:32:32.449Z,35.67
2018-10-09T08:35:01.570Z,33.30
2018-10-09T08:37:31.775Z,32.53
2018-10-09T08:40:00.989Z,31.60
2018-10-09T08:42:30.857Z,34.10
2018-10-09T08:44:59.816Z,31.23
2018-10-09T08:47:28.663Z,32.73
2018-10-09T08:49:58.048Z,32.97
2018-10-09T08:52:27.958Z,32.07
2018-10-09T08:55:08.206Z,31.77
2018-10-09T08:57:38.252Z,35.23
2018-10-09T09:00:08.310Z,32.20
2018-10-09T09:02:37.370Z,31.73
2018-10-09T09:05:07.035Z,33.40
2018-10-09T09:07:36.663Z,33.83
2018-10-09T09:10:06.090Z,33.13
2018-10-09T09:12:34.989Z,34.83
2018-10-09T09:15:04.385Z,31.63
2018-10-09T09:17:33.317Z,34.03
2018-10-09T09:20:02.187Z,32.73
2018-10-09T09:22:36.063Z,31.97
2018-10-09T09:25:05.199Z,33.97
2018-10-09T09:27:34.159Z,33.87
2018-10-09T09:30:03.340Z,33.00
2018-10-09T09:32:32.735Z,31.13
2018-10-09T09:35:06.217Z,33.73
2018-10-09T09:37:35.416Z,33.80
2018-10-09T09:40:09.314Z,32.47
2018-10-09T09:42:43.443Z,30.83
2018-10-09T09:45:16.302Z,31.77
2018-10-09T09:47:46.043Z,28.30
2018-10-09T09:50:14.909Z,30.40
2018-10-09T09:52:44.592Z,31.90
2018-10-09T09:55:13.451Z,32.00
2018-10-09T09:57:42.990Z,33.33
2018-10-09T10:00:17.765Z,29.03
2018-10-09T10:02:48.243Z,31.30
2018-10-09T10:05:17.329Z,29.73
2018-10-09T10:07:46.235Z,29.00
2018-10-09T10:10:15.892Z,29.37
2018-10-09T10:12:45.898Z,31.37
2018-10-09T10:15:15.669Z,33.93
2018-10-09T10:17:45.088Z,32.03
2018-10-09T10:20:14.910Z,29.27
2018-10-09T10:22:45.093Z,31.60
2018-10-09T10:25:14.096Z,30.93
2018-10-09T10:27:42.928Z,28.63
2018-10-09T10:30:14.399Z,29.17
2018-10-09T10:32:43.327Z,30.83
2018-10-09T10:35:12.294Z,30.17
2018-10-09T10:37:43.991Z,28.63
2018-10-09T10:40:13.243Z,26.70
2018-10-09T10:42:42.981Z,29.77
2018-10-09T10:45:12.116Z,30.60
2018-10-09T10:47:42.201Z,30.23
2018-10-09T10:50:11.506Z,30.50
2018-10-09T10:52:40.779Z,26.30
2018-10-09T10:55:11.280Z,28.03
2018-10-09T10:57:41.446Z,28.50
2018-10-09T11:00:11.351Z,28.77
2018-10-09T11:02:40.625Z,27.27
2018-10-09T11:05:11.068Z,28.43
2018-10-09T11:07:40.209Z,29.33
2018-10-09T11:10:10.437Z,30.43
2018-10-09T11:12:39.412Z,31.83
2018-10-09T11:15:08.263Z,28.07
2018-10-09T11:17:37.477Z,28.43
2018-10-09T11:20:06.628Z,29.93
2018-10-09T11:22:36.747Z,29.37
2018-10-09T11:25:08.471Z,27.20
2018-10-09T11:30:29.702Z,30.23
2018-10-09T11:32:59.594Z,29.50
2018-10-09T11:35:29.124Z,27.63
2018-10-09T11:37:58.310Z,27.37
2018-10-09T11:40:27.715Z,28.77
2018-10-09T11:42:57.240Z,24.90
2018-10-09T11:45:27.729Z,28.77
2018-10-09T11:47:57.060Z,26.47
2018-10-09T11:50:26.412Z,28.30
2018-10-09T11:52:55.401Z,26.67
2018-10-09T11:55:24.696Z,28.43
2018-10-09T11:57:54.285Z,29.23
2018-10-09T12:00:23.647Z,27.13
2018-10-09T12:02:52.854Z,27.87
2018-10-09T12:05:26.576Z,25.50
2018-10-09T12:07:55.789Z,25.37
2018-10-09T12:10:27.581Z,26.43
2018-10-09T12:13:03.573Z,25.43
2018-10-09T12:15:34.505Z,24.50
2018-10-09T12:18:03.729Z,25.73
2018-10-09T12:20:32.872Z,24.63
2018-10-09T12:23:01.932Z,25.17
2018-10-09T12:25:31.435Z,20.53
2018-10-09T12:28:01.471Z,20.33
2018-10-09T12:30:32.065Z,23.30
2018-10-09T12:33:02.136Z,23.07
2018-10-09T12:35:31.037Z,26.27
2018-10-09T12:38:01.568Z,23.57
2018-10-09T12:40:31.053Z,24.73
2018-10-09T12:42:59.963Z,22.60
2018-10-09T12:45:29.127Z,23.63
2018-10-09T12:47:58.139Z,24.43
2018-10-09T12:50:27.159Z,22.83
2018-10-09T12:52:56.346Z,23.30
2018-10-09T12:55:25.990Z,20.13
2018-10-09T12:57:54.946Z,20.37
2018-10-09T13:00:24.043Z,17.87
2018-10-09T13:02:53.038Z,19.33
2018-10-09T13:05:21.919Z,20.73
2018-10-09T13:07:51.611Z,19.23
2018-10-09T13:10:20.658Z,20.20
2018-10-09T13:12:49.805Z,19.53
2018-10-09T13:15:18.819Z,15.80
2018-10-09T13:17:53.460Z,15.27
2018-10-09T13:20:22.335Z,15.50
2018-10-09T13:22:52.788Z,15.60
2018-10-09T13:25:21.638Z,13.27
2018-10-09T13:27:50.698Z,13.00
2018-10-09T13:30:25.003Z,13.53
2018-10-09T13:33:00.459Z,14.63
2018-10-09T13:35:31.257Z,13.93
2018-10-09T13:38:00.919Z,12.37
2018-10-09T13:40:34.207Z,12.60
2018-10-09T13:43:03.247Z,12.13
2018-10-09T13:45:32.979Z,11.20
2018-10-09T13:48:02.030Z,11.77
2018-10-09T13:50:31.172Z,11.73
2018-10-09T13:53:00.088Z,11.20
2018-10-09T13:55:28.968Z,11.17
2018-10-09T13:57:58.106Z,13.07
2018-10-09T14:00:27.016Z,11.20
2018-10-09T14:02:56.257Z,10.00
2018-10-09T14:05:25.327Z,11.47
2018-10-09T14:07:56.149Z,13.13
2018-10-09T14:10:25.259Z,13.53
2018-10-09T14:12:54.799Z,15.27
2018-10-09T14:15:25.286Z,12.90
2018-10-09T14:17:54.495Z,15.70
2018-10-09T14:20:23.882Z,14.60
2018-10-09T14:22:54.849Z,14.73
2018-10-09T14:25:23.547Z,14.80
2018-10-09T14:27:52.598Z,15.83
2018-10-09T14:30:33.852Z,15.93
2018-10-09T14:33:18.452Z,14.37
2018-10-09T14:35:47.948Z,13.43
2018-10-09T14:38:16.873Z,14.70
2018-10-09T14:40:45.840Z,14.33
2018-10-09T14:43:14.834Z,14.93
2018-10-09T14:45:43.709Z,16.10
2018-10-09T14:48:12.723Z,15.27
2018-10-09T14:50:41.630Z,14.37
2018-10-09T14:53:10.510Z,13.90
2018-10-09T14:55:39.372Z,13.87
2018-10-09T14:58:08.313Z,15.27
2018-10-09T15:00:37.218Z,14.00
2018-10-09T15:03:07.274Z,13.60
2018-10-09T15:05:36.128Z,15.07
2018-10-09T15:08:05.020Z,13.27
2018-10-09T15:10:33.860Z,14.20
2018-10-09T15:13:03.071Z,14.10
2018-10-09T15:15:32.291Z,14.33
2018-10-09T15:21:08.877Z,14.40
2018-10-09T15:23:39.067Z,13.87
2018-10-09T15:26:08.400Z,13.43
2018-10-09T15:31:13.038Z,12.77
2018-10-09T15:33:41.637Z,13.10
2018-10-09T15:36:10.157Z,12.40
2018-10-09T15:38:38.746Z,13.60
2018-10-09T15:41:07.958Z,13.10
2018-10-09T15:43:36.553Z,12.90
2018-10-09T15:46:07.980Z,12.73
2018-10-09T15:48:36.867Z,12.37
2018-10-09T15:51:05.507Z,12.50
2018-10-09T15:53:34.648Z,12.97
2018-10-09T15:56:03.815Z,12.30
2018-10-09T15:58:32.582Z,13.03
2018-10-09T16:01:01.192Z,13.00
2018-10-09T16:03:30.100Z,12.17
2018-10-09T16:05:58.959Z,12.03
2018-10-09T16:08:28.634Z,12.70
2018-10-09T16:10:57.494Z,12.73
2018-10-09T16:16:18.714Z,13.03
2018-10-09T16:18:48.130Z,12.80
2018-10-09T16:21:19.055Z,11.70
2018-10-09T16:23:49.415Z,13.00
2018-10-09T16:26:18.295Z,13.10
2018-10-09T16:28:47.275Z,13.43
2018-10-09T16:31:16.333Z,13.23
2018-10-09T16:33:45.270Z,12.23
2018-10-09T16:36:14.253Z,11.37
2018-10-09T16:38:43.241Z,13.07
2018-10-09T16:41:12.182Z,14.30
2018-10-09T16:43:41.103Z,15.17
2018-10-09T16:46:10.038Z,14.07
2018-10-09T16:48:38.951Z,15.33
2018-10-09T16:51:07.941Z,12.70
2018-10-09T16:53:37.238Z,13.37
2018-10-09T16:56:06.740Z,12.27
2018-10-09T16:58:36.395Z,12.27
2018-10-09T17:01:05.353Z,13.23
2018-10-09T17:03:34.415Z,14.90
2018-10-09T17:06:03.371Z,15.47
2018-10-09T17:08:32.527Z,17.47
2018-10-09T17:11:02.409Z,17.03
2018-10-09T17:13:31.411Z,14.50
2018-10-09T17:16:00.807Z,17.60
2018-10-09T17:18:29.832Z,16.70
2018-10-09T17:21:02.712Z,16.00
2018-10-09T17:23:32.041Z,14.30
2018-10-09T17:26:01.260Z,16.50
2018-10-09T17:28:30.468Z,15.43
2018-10-09T17:30:59.314Z,13.50
2018-10-09T17:33:28.986Z,17.57
2018-10-09T17:35:57.909Z,15.23
2018-10-09T17:38:26.864Z,17.37
2018-10-09T17:40:55.839Z,17.53
2018-10-09T17:43:24.762Z,18.43
2018-10-09T17:45:53.492Z,15.80
2018-10-09T17:48:22.474Z,18.03
2018-10-09T17:50:51.402Z,17.63
2018-10-09T17:53:20.295Z,17.93
2018-10-09T17:55:49.222Z,19.50
2018-10-09T17:58:18.157Z,20.40
2018-10-09T18:00:47.466Z,21.03
2018-10-09T18:03:16.618Z,21.67
2018-10-09T18:05:45.701Z,25.63
2018-10-09T18:08:14.751Z,33.87
2018-10-09T18:10:43.720Z,38.67
2018-10-09T18:13:12.633Z,34.90
2018-10-09T18:15:41.483Z,35.27
2018-10-09T18:18:10.394Z,30.83
2018-10-09T18:20:39.345Z,35.83
2018-10-09T18:23:08.817Z,38.70
2018-10-09T18:25:37.704Z,34.90
2018-10-09T18:28:07.107Z,32.57
2018-10-09T18:30:36.012Z,30.23
2018-10-09T18:33:05.034Z,34.13
2018-10-09T18:35:34.210Z,33.20
2018-10-09T18:38:03.066Z,35.33
2018-10-09T18:40:32.417Z,33.57
2018-10-09T18:43:01.308Z,32.00
2018-10-09T18:45:30.250Z,32.80
2018-10-09T18:47:59.125Z,28.03
2018-10-09T18:50:28.031Z,32.17
2018-10-09T18:52:59.850Z,33.10
2018-10-09T18:55:31.689Z,31.70
2018-10-09T18:58:00.654Z,32.43
2018-10-09T19:00:31.317Z,32.33
2018-10-09T19:03:00.420Z,35.00
2018-10-09T19:05:29.551Z,32.80
2018-10-09T19:07:58.677Z,26.53
2018-10-09T19:10:33.122Z,35.00
2018-10-09T19:13:02.622Z,31.50
2018-10-09T19:15:32.135Z,37.60
2018-10-09T19:18:01.125Z,38.50
2018-10-09T19:20:32.138Z,38.83
2018-10-09T19:23:03.898Z,34.13
2018-10-09T19:25:37.023Z,37.63
2018-10-09T19:28:07.840Z,35.53
2018-10-09T19:30:40.354Z,32.00
2018-10-09T19:33:16.044Z,41.43
2018-10-09T19:35:45.020Z,40.97
2018-10-09T19:38:16.118Z,41.87
2018-10-09T19:40:50.796Z,34.93
2018-10-09T19:43:23.360Z,39.37
2018-10-09T19:46:05.575Z,36.07
2018-10-09T19:48:35.144Z,44.00
2018-10-09T19:51:04.336Z,45.43
2018-10-09T19:56:48.547Z,36.33
2018-10-09T19:59:39.716Z,45.87
2018-10-09T20:02:37.633Z,47.00
2018-10-09T20:05:23.590Z,44.43
2018-10-09T20:10:59.109Z,45.40
2018-10-09T20:13:36.855Z,47.37
2018-10-09T20:16:30.746Z,43.93
2018-10-09T20:19:13.988Z,39.70
2018-10-09T20:21:45.391Z,42.43
2018-10-09T20:24:14.690Z,43.63
2018-10-09T20:26:44.462Z,45.13
2018-10-09T20:29:13.896Z,43.90
2018-10-09T20:31:43.773Z,46.13
2018-10-09T20:34:13.703Z,42.87
2018-10-09T20:36:46.069Z,48.47
2018-10-09T20:39:18.087Z,44.00
2018-10-09T20:41:47.509Z,47.40
2018-10-09T20:44:16.484Z,44.60
2018-10-09T20:46:45.717Z,44.97
2018-10-09T20:49:17.747Z,42.23
2018-10-09T20:51:48.188Z,37.53
2018-10-09T20:54:17.582Z,42.77
2018-10-09T20:56:47.613Z,53.37
2018-10-09T20:59:17.696Z,47.53
2018-10-09T21:01:46.808Z,56.50
2018-10-09T21:04:16.754Z,63.00
2018-10-09T21:06:47.619Z,50.77
2018-10-09T21:09:18.060Z,66.40
2018-10-09T21:11:54.761Z,61.67
2018-10-09T21:14:24.769Z,67.13
2018-10-09T21:16:53.718Z,55.33
2018-10-09T21:19:27.564Z,64.87
2018-10-09T21:22:00.575Z,68.70
2018-10-09T21:24:30.447Z,68.30
2018-10-09T21:27:00.581Z,60.40
2018-10-09T21:29:32.668Z,64.83
2018-10-09T21:32:02.728Z,66.80
2018-10-09T21:34:34.514Z,51.93
2018-10-09T21:37:04.133Z,65.83
2018-10-09T21:39:33.474Z,70.43
2018-10-09T21:42:04.322Z,66.67
2018-10-09T21:44:33.746Z,69.33
2018-10-09T21:47:02.771Z,64.50
2018-10-09T21:49:33.218Z,70.50
2018-10-09T21:52:08.251Z,76.43
2018-10-09T21:54:39.855Z,62.83
2018-10-09T21:57:09.052Z,50.90
2018-10-09T21:59:38.293Z,59.37
2018-10-09T22:02:09.314Z,50.83
2018-10-09T22:04:39.582Z,53.37
2018-10-09T22:07:12.926Z,49.10
2018-10-09T22:09:46.567Z,57.23
2018-10-09T22:12:18.797Z,65.60
2018-10-09T22:14:49.461Z,59.67
2018-10-09T22:17:23.040Z,50.47
2018-10-09T22:19:51.801Z,50.63
2018-10-09T22:22:20.849Z,60.00
2018-10-09T22:24:49.695Z,67.93
2018-10-09T22:27:19.194Z,83.00
2018-10-09T22:29:48.992Z,55.63
2018-10-09T22:32:18.259Z,60.33
2018-10-09T22:34:47.957Z,55.77
2018-10-09T22:37:17.026Z,70.13
2018-10-09T22:39:45.960Z,67.73
2018-10-09T22:42:16.507Z,71.27
2018-10-09T22:44:47.268Z,67.80
2018-10-09T22:47:16.302Z,64.30
2018-10-09T22:49:45.224Z,78.50
2018-10-09T22:52:14.199Z,69.30
2018-10-09T22:54:43.099Z,70.23
2018-10-09T22:57:12.177Z,79.83
2018-10-09T22:59:46.474Z,76.53
2018-10-09T23:02:28.395Z,84.60
2018-10-09T23:04:57.201Z,68.67
2018-10-09T23:07:26.031Z,64.57
2018-10-09T23:09:54.874Z,74.27
2018-10-09T23:12:23.719Z,48.57
2018-10-09T23:14:53.488Z,57.23
2018-10-09T23:17:22.274Z,47.30
2018-10-09T23:19:51.204Z,64.30
2018-10-09T23:22:19.920Z,52.70
2018-10-09T23:24:48.849Z,58.93
2018-10-09T23:27:17.741Z,52.50
2018-10-09T23:29:48.401Z,81.63
2018-10-09T23:32:17.177Z,116.90
2018-10-09T23:34:46.016Z,106.90
2018-10-09T23:37:14.901Z,99.03
2018-10-09T23:39:43.771Z,82.43
2018-10-09T23:42:12.737Z,106.50
2018-10-09T23:44:41.843Z,107.23
2018-10-09T23:47:11.182Z,101.80
2018-10-09T23:49:40.040Z,91.43
2018-10-09T23:52:08.902Z,86.17
2018-10-09T23:54:37.838Z,82.80
2018-10-09T23:57:06.726Z,89.13
2018-10-09T23:59:35.522Z,87.57
